Grass Lake, Michigan
Current Conditions -  °F | °C
As of 4:56 AM on Monday 22 Dec 2014 (Local Time) from KJXN Reporting Station
Haze Haze  
Wind Chill: 16°   Ceiling: Unl
Heat Index: 24°   Visibility: 4mi
Dew Point: 21°   Wind: 7mph
Humidity: 88%   Direction: 120°ESE
Pressure: 30.08"   Gusts: NA
Location:  42.25°N, 84.21°W
Report Text: KJXN 220956Z 12006KT 4SM BR CLR M04/M06 A3008 RMK AO2 SLP197 T10441061
Loading
Personal Weather Stations






























Interactive Weather Map New forecast layout! Learn more

10-Day Weather Forecast

Advertisements
Track Severe Weather on mobile